Gebbies Valley, New Zealand

1:37 PM NZDT on December 28, 2014 (GMT +1300)
Gebbies Valley | Change Station
CLOSE
Current Station
Personal Weather Station
Location: Christchurch, CANTERBURY
Elevation: 12 ft
Nearby Weather Stations

Elev 12 ft 43.71 °S, 172.62 °E | Updated 14 seconds ago

Overcast
Overcast
63.7 °F
Feels Like 63.7 °F
N
14.5
Wind Variable Wind from South
Gusts 20.6 mph

Today
High -- | Low -- °F
--% Chance of Precip.
Yesterday
High -- | Low -- °F
Precip. -- in
5:47 AM 9:13 PM
Waxing Crescent, 41% visible
Pressure 30.18 in
Visibility 6.2 miles
Clouds Overcast 1600 ft
Dew Point 56 °F
Humidity 77%
Rainfall 0.04 in
Snow Depth Not available.
UV 3 out of 12
Pollen Not available.
Air Quality Not available.
Flu Activity Not available.
METAR NZCH 280030Z AUTO 21018KT 9999 OVC016/// 17/13 Q1022 NOSIG

More Conditions Fewer Conditions

Pressure 30.18 in
Visibility 6.2 miles
Clouds Overcast 1600 ft
Dew Point 56 °F
Humidity 77%
Rainfall 0.04 in
Snow Depth Not available.
UV 3 out of 12
Pollen Not available.
Air Quality Not available.
Flu Activity Not available.
METAR NZCH 280030Z AUTO 21018KT 9999 OVC016/// 17/13 Q1022 NOSIG

More Conditions Fewer Conditions

10-Day Weather Forecast

Almanac

Astronomy

Dec. 28, 2014 Rise Set
Actual Time
Civil Twilight
Nautical Twilight
Astronomical Twilight
Moon
Length of Visible Light
Length of Day
Tomorrow will be .
, % of the Moon is Illuminated

Today's Extremes

Country Highs Country Lows

Community

WunderPhotos

Upload Photos

1,781,116 photos uploaded!

WunderBlogs® & News

Nearby

Air Quality

  Air Quality AQ Index Pollutant
Not available.

Snow Depth

Station Depth Elevation

Earthquake Activity

City Distance Mag. Time & Date
Minimum magnitude displayed is 2.5.

Coastal Water Temperatures

Place Temperature

Nearby Weather Stations